CA-0345 weather

CLOSED Smith River Airport
British Columbia, Canada

Public forecast

Using degrees Celsius for public forecast. Weather courtesy of forecast.io.

Closest aviation weather report (METAR) to Smith River Airport

Closest report is Watson Lake Airport, 72.9 nm (134.9 km) WNW. Retrieved 2019/10/23 22:02 UTC (41 minutes ago):

CYQH 232202Z 12011G17KT 1SM R09/P6000FT/N -SN SCT007 OVC013 VV015 M02/M03 A2991 RMK ST3SC3SN2 SLP176

Closest aviation forecast (TAF) to Smith River Airport

Closest forecast is Watson Lake Airport, 72.9 nm (134.9 km) WNW. Retrieved 2019/10/23 18:42 UTC (4 hours ago):

TAF CYQH 231738Z 2318/2406 VRB03KT P6SM FEW004 SCT050 OVC080 TEMPO 2319/2320 4SM -SN BR FEW004 BKN050 OVC080 FM232000 10006KT 2SM -SN OVC008 TEMPO 2320/2404 6SM -SN OVC030 PROB30 2320/2404 1SM -SHSN FM240400 VRB03KT P6SM SCT020 BKN040 TEMPO 2404/2406 4SM -SN BKN020 OVC040 RMK NXT FCST BY 240000Z